In Rescue
 
Open Full Screen Window  High Contrast Mode
Wind Gusting 16 knots
11
July 13, 2020 9:55 PM CDT
Weather Information
Wind Direction
  160 °
Wind Speed
  11 kt (13 mph)
Wind Gust
  16 kt (18 mph)
Altimeter
29.76 in
Visibility
10 SM
Temperature
27° C
81° F
Dewpoint
18° C
64° F
Humidity
58%
1hr Rain Fall
00.00 in.
24hr Rain Fall
00.00 in.
Sky Condition
Scattered @ 6,500 ft
VFR

METAR KPNM 140255Z AUTO 16011G16KT 10SM SCT065 27/18 A2976 RMK AO2

FAA Disclaimer: The data displayed is for advisory purposes only and is not to be used for flight planning or operations.